Time;durP1;ratioP1;P1;durP2;ratioP2;P2;SDS_P1;SDS_P2;PMS_P1;PMS_P2;Temp;Humidity;BMP_temperature;BMP_pressure;BME280_temperature;BME280_humidity;BME280_pressure;Samples;Min_cycle;Max_cycle;Signal;HPM_P1;HPM_P2
2021/11/30 00:00:38;;;;;;;17.10;12.80;;;;;;;3.09;100.00;100435.88;6188245;28;20225;-62
2021/11/30 00:04:00;;;;;;;13.50;11.70;;;;;;;3.43;100.00;100420.91;6208652;28;20646;-63
2021/11/30 00:07:21;;;;;;;14.17;12.77;;;;;;;3.03;100.00;100402.34;6207980;28;20226;-63
2021/11/30 00:10:46;;;;;;;14.17;12.47;;;;;;;3.13;100.00;100399.06;6202766;28;20225;-63
2021/11/30 00:14:07;;;;;;;18.53;12.87;;;;;;;3.08;100.00;100401.56;6209375;28;20225;-62
2021/11/30 00:17:29;;;;;;;10.33;8.93;;;;;;;3.15;100.00;100397.38;6204286;28;20760;-62
2021/11/30 00:20:53;;;;;;;10.53;8.87;;;;;;;3.18;100.00;100391.38;6184372;28;20254;-63
2021/11/30 00:24:14;;;;;;;10.50;9.33;;;;;;;3.13;100.00;100389.63;6205350;28;20339;-63
2021/11/30 00:27:35;;;;;;;12.43;11.13;;;;;;;3.49;100.00;100369.50;6204052;28;20233;-63
2021/11/30 00:30:56;;;;;;;11.37;10.27;;;;;;;3.28;100.00;100368.38;6205258;28;20229;-63
2021/11/30 00:34:18;;;;;;;11.93;10.63;;;;;;;3.47;100.00;100372.06;6207772;28;20233;-63
2021/11/30 00:37:40;;;;;;;13.40;10.87;;;;;;;3.27;100.00;100368.38;6210706;28;20233;-64
2021/11/30 00:41:02;;;;;;;13.47;10.97;;;;;;;3.18;100.00;100353.69;6196641;28;20328;-63
2021/11/30 00:44:26;;;;;;;12.50;10.67;;;;;;;3.46;100.00;100354.88;6210517;28;20237;-62
2021/11/30 00:47:51;;;;;;;12.53;9.67;;;;;;;3.24;100.00;100337.44;6210028;28;20277;-62
2021/11/30 00:51:14;;;;;;;15.17;11.67;;;;;;;3.15;100.00;100333.03;6210350;28;20784;-63
2021/11/30 00:54:37;;;;;;;13.07;11.47;;;;;;;3.17;100.00;100343.34;6212192;28;20323;-63
2021/11/30 00:57:58;;;;;;;12.67;11.03;;;;;;;3.28;100.00;100334.94;6208653;28;20241;-62
2021/11/30 01:01:19;;;;;;;13.90;12.33;;;;;;;3.24;100.00;100316.84;6209208;28;20253;-63
2021/11/30 01:04:40;;;;;;;14.90;12.53;;;;;;;3.03;100.00;100315.72;6213017;28;20237;-63
2021/11/30 01:08:01;;;;;;;12.60;11.30;;;;;;;3.09;100.00;100320.09;6211501;28;20232;-63
2021/11/30 01:11:24;;;;;;;15.73;14.13;;;;;;;3.29;100.00;100315.19;6208140;28;20226;-63
2021/11/30 01:14:45;;;;;;;13.70;12.27;;;;;;;3.45;100.00;100290.50;6209592;28;20252;-62
2021/11/30 01:18:06;;;;;;;16.17;14.50;;;;;;;3.29;100.00;100290.31;6209330;28;20221;-63
2021/11/30 01:21:27;;;;;;;13.30;11.90;;;;;;;3.21;100.00;100280.78;6203285;28;20253;-62
2021/11/30 01:24:48;;;;;;;15.73;13.93;;;;;;;3.26;100.00;100262.00;6210500;28;20241;-63
2021/11/30 01:28:10;;;;;;;16.07;13.47;;;;;;;3.41;100.00;100260.41;6203697;28;20257;-63
2021/11/30 01:31:31;;;;;;;13.27;11.87;;;;;;;3.32;100.00;100264.63;6205261;28;20256;-62
2021/11/30 01:34:52;;;;;;;15.13;13.63;;;;;;;3.52;100.00;100257.13;6210624;28;20229;-61
2021/11/30 01:38:14;;;;;;;15.33;13.73;;;;;;;3.34;100.00;100255.22;6208111;28;20228;-62
2021/11/30 01:41:38;;;;;;;12.97;11.57;;;;;;;3.53;100.00;100245.97;6209086;28;20264;-63
2021/11/30 01:45:05;;;;;;;13.77;12.37;;;;;;;3.48;100.00;100252.78;6208345;28;20241;-63
2021/11/30 01:52:09;;;;;;;15.20;13.60;;;;;;;3.66;100.00;100244.38;6196216;28;20233;-63
2021/11/30 01:55:31;;;;;;;14.10;12.47;;;;;;;3.54;100.00;100239.13;6206404;28;20264;-63
2021/11/30 01:58:53;;;;;;;13.10;11.57;;;;;;;3.42;100.00;100213.25;6192952;28;20237;-62
2021/11/30 02:02:17;;;;;;;12.70;11.23;;;;;;;3.43;100.00;100208.13;6211198;28;20332;-63
2021/11/30 02:05:41;;;;;;;12.73;11.40;;;;;;;3.64;100.00;100198.88;6207409;28;20230;-64
2021/11/30 02:09:03;;;;;;;12.80;10.63;;;;;;;3.28;100.00;100185.66;6211361;28;20229;-62
2021/11/30 02:12:24;;;;;;;14.27;12.73;;;;;;;3.25;100.00;100170.16;6208783;28;20342;-63
2021/11/30 02:15:49;;;;;;;10.40;9.40;;;;;;;3.19;100.00;100170.13;6209027;28;20225;-63
2021/11/30 02:19:11;;;;;;;13.67;10.87;;;;;;;3.22;100.00;100153.84;6206646;28;20252;-63
2021/11/30 02:22:34;;;;;;;10.80;9.70;;;;;;;3.06;100.00;100142.53;6208930;28;20233;-62
2021/11/30 02:25:55;;;;;;;13.07;11.73;;;;;;;3.19;100.00;100123.78;6206483;28;20690;-63
2021/11/30 02:29:15;;;;;;;13.00;11.60;;;;;;;3.17;100.00;100104.91;6208935;28;20623;-63
2021/11/30 02:32:37;;;;;;;12.27;11.00;;;;;;;3.18;100.00;100088.63;6206720;28;20225;-64
2021/11/30 02:35:57;;;;;;;11.60;10.50;;;;;;;3.10;100.00;100077.38;6207076;28;20233;-63
2021/11/30 02:39:22;;;;;;;11.60;10.40;;;;;;;3.39;100.00;100069.06;6209625;28;20606;-64
2021/11/30 02:42:43;;;;;;;11.17;10.03;;;;;;;3.19;100.00;100067.19;6177648;28;20245;-63
2021/11/30 02:46:04;;;;;;;10.50;9.40;;;;;;;3.13;100.00;100054.28;6209350;28;20225;-64
2021/11/30 02:49:27;;;;;;;11.33;10.23;;;;;;;3.48;100.00;100043.41;6209286;28;20229;-64
2021/11/30 02:52:48;;;;;;;9.97;8.97;;;;;;;3.29;100.00;100021.81;6207943;28;20505;-63
2021/11/30 02:56:10;;;;;;;10.30;9.20;;;;;;;3.15;100.00;100029.41;6204636;28;20229;-63
2021/11/30 02:59:33;;;;;;;8.00;7.20;;;;;;;3.07;100.00;100013.91;6207248;28;20225;-64
2021/11/30 03:02:55;;;;;;;8.70;7.77;;;;;;;3.45;100.00;99982.47;6179354;28;20307;-63
2021/11/30 03:06:16;;;;;;;9.27;7.77;;;;;;;3.42;100.00;99976.44;6209876;28;20229;-63
2021/11/30 03:09:37;;;;;;;8.67;7.77;;;;;;;3.46;100.00;99963.59;6205699;28;20628;-63
2021/11/30 03:13:00;;;;;;;7.60;6.90;;;;;;;3.39;100.00;99950.66;6206388;28;20804;-63
2021/11/30 03:16:21;;;;;;;8.43;7.70;;;;;;;3.39;100.00;99960.97;6201606;28;20234;-64
2021/11/30 03:19:42;;;;;;;8.93;7.70;;;;;;;3.32;100.00;99932.63;6210050;28;20501;-63
2021/11/30 03:23:03;;;;;;;9.40;8.50;;;;;;;3.53;100.00;99931.03;6209126;28;20545;-63
2021/11/30 03:26:24;;;;;;;7.33;6.63;;;;;;;3.27;100.00;99911.13;6209248;28;20217;-63
2021/11/30 03:29:46;;;;;;;7.80;6.43;;;;;;;3.24;100.00;99890.53;6208455;28;20229;-63
2021/11/30 03:36:49;;;;;;;8.67;7.87;;;;;;;3.08;100.00;99873.28;6206619;28;21359;-64
2021/11/30 03:40:11;;;;;;;9.73;7.40;;;;;;;3.08;100.00;99865.56;6205675;28;20217;-64
2021/11/30 03:43:32;;;;;;;9.33;8.53;;;;;;;3.15;100.00;99855.31;6208186;28;20789;-64
2021/11/30 03:46:54;;;;;;;7.17;6.47;;;;;;;3.04;100.00;99876.69;6205697;28;20241;-63
2021/11/30 03:50:15;;;;;;;7.80;6.67;;;;;;;2.76;100.00;99843.06;6190244;28;20316;-64
2021/11/30 03:53:37;;;;;;;8.57;7.73;;;;;;;3.00;100.00;99793.47;6207156;28;20229;-64
2021/11/30 03:56:58;;;;;;;5.77;5.33;;;;;;;2.80;100.00;99811.38;6203833;28;20225;-64
2021/11/30 04:00:19;;;;;;;7.83;7.13;;;;;;;2.86;100.00;99785.69;6202348;28;20252;-63
2021/11/30 04:03:42;;;;;;;7.30;6.70;;;;;;;2.81;100.00;99792.53;6207640;28;20646;-63
2021/11/30 04:07:03;;;;;;;7.57;6.97;;;;;;;2.84;100.00;99777.09;6203387;28;20240;-63
2021/11/30 04:10:25;;;;;;;5.47;4.93;;;;;;;2.64;100.00;99753.84;6205778;28;20347;-64
2021/11/30 04:13:46;;;;;;;7.40;6.70;;;;;;;2.68;100.00;99740.16;6212257;28;20735;-64
2021/11/30 04:17:06;;;;;;;6.77;6.17;;;;;;;2.70;100.00;99742.75;6210267;28;20225;-65
2021/11/30 04:20:29;;;;;;;7.97;7.17;;;;;;;2.77;100.00;99721.34;6211151;28;20229;-64
2021/11/30 04:23:50;;;;;;;7.50;5.40;;;;;;;2.65;100.00;99709.28;6211148;28;20237;-64
2021/11/30 04:27:11;;;;;;;6.93;6.40;;;;;;;2.83;100.00;99687.97;6208218;28;20412;-63
2021/11/30 04:30:32;;;;;;;6.80;6.20;;;;;;;2.69;100.00;99676.75;6205749;28;22402;-63
2021/11/30 04:33:53;;;;;;;8.40;5.83;;;;;;;2.81;100.00;99674.25;6210664;28;20234;-64
2021/11/30 04:37:15;;;;;;;7.27;6.57;;;;;;;2.90;100.00;99657.97;6211013;28;20645;-63
2021/11/30 04:40:36;;;;;;;5.73;5.33;;;;;;;2.85;100.00;99654.53;6206423;28;20233;-63
2021/11/30 04:43:57;;;;;;;6.90;5.93;;;;;;;2.86;100.00;99645.97;6212583;28;20233;-63
2021/11/30 04:47:18;;;;;;;7.10;6.60;;;;;;;2.90;100.00;99635.69;6210711;28;20319;-63
2021/11/30 04:50:42;;;;;;;6.47;5.87;;;;;;;2.79;100.00;99628.78;6205575;28;20613;-64
2021/11/30 04:54:05;;;;;;;5.93;5.33;;;;;;;2.99;100.00;99621.16;6211903;28;20232;-64
2021/11/30 04:57:26;;;;;;;6.60;6.10;;;;;;;2.92;100.00;99608.25;6207548;28;20225;-64
2021/11/30 05:00:48;;;;;;;6.13;5.63;;;;;;;3.08;100.00;99603.16;6207087;28;20229;-63
2021/11/30 05:04:09;;;;;;;6.27;5.67;;;;;;;2.98;100.00;99609.16;6209925;28;20828;-64
2021/11/30 05:07:30;;;;;;;6.53;5.93;;;;;;;3.03;100.00;99594.59;6208507;28;20225;-64
2021/11/30 05:10:52;;;;;;;8.70;8.00;;;;;;;3.18;100.00;99576.63;6208222;28;20272;-64
2021/11/30 05:14:13;;;;;;;6.20;5.67;;;;;;;3.10;100.00;99609.16;6210646;28;20800;-64
2021/11/30 05:17:34;;;;;;;5.47;5.10;;;;;;;3.05;100.00;99575.72;6208957;28;21037;-64
2021/11/30 05:20:59;;;;;;;9.50;8.43;;;;;;;3.33;100.00;99568.03;6208770;28;20244;-63
2021/11/30 05:24:20;;;;;;;6.77;6.27;;;;;;;3.21;100.00;99556.00;6211291;28;20237;-63
2021/11/30 05:27:43;;;;;;;8.10;7.50;;;;;;;3.28;100.00;99550.03;6182945;28;20233;-64
2021/11/30 05:31:06;;;;;;;7.77;7.10;;;;;;;3.44;100.00;99560.31;6207078;28;20233;-65
2021/11/30 05:34:27;;;;;;;6.00;5.50;;;;;;;3.39;100.00;99549.16;6207464;28;20224;-63
2021/11/30 05:37:48;;;;;;;8.67;8.07;;;;;;;3.46;100.00;99546.59;6208942;28;20221;-63
2021/11/30 05:41:09;;;;;;;7.50;6.90;;;;;;;3.51;100.00;99518.28;6209263;28;20364;-64
2021/11/30 05:44:32;;;;;;;8.90;7.80;;;;;;;3.61;100.00;99501.97;6207468;28;20615;-64
2021/11/30 05:47:53;;;;;;;9.53;8.73;;;;;;;3.71;100.00;99505.38;6209876;28;20229;-64
2021/11/30 05:51:14;;;;;;;10.83;8.57;;;;;;;3.56;100.00;99516.53;6208749;28;20705;-64
2021/11/30 05:54:36;;;;;;;7.27;6.77;;;;;;;3.57;100.00;99499.38;6210582;28;20233;-63
2021/11/30 05:57:58;;;;;;;8.87;8.00;;;;;;;3.75;100.00;99482.16;6208014;28;20571;-63
2021/11/30 06:01:25;;;;;;;8.80;8.10;;;;;;;3.80;100.00;99499.31;6203682;28;20686;-63
2021/11/30 06:04:46;;;;;;;10.67;9.77;;;;;;;4.00;100.00;99484.69;6200484;28;20807;-64
2021/11/30 06:08:07;;;;;;;7.80;7.20;;;;;;;3.93;100.00;99482.97;6205649;28;20252;-64
2021/11/30 06:11:28;;;;;;;10.30;9.50;;;;;;;4.05;100.00;99470.06;6197951;28;20610;-64
2021/11/30 06:14:49;;;;;;;9.07;8.27;;;;;;;4.03;100.00;99501.84;6209877;28;20265;-64
2021/11/30 06:18:11;;;;;;;9.17;8.47;;;;;;;4.13;100.00;99472.63;6205848;28;20226;-64
2021/11/30 06:21:33;;;;;;;10.20;9.30;;;;;;;4.18;100.00;99485.47;6207009;28;20241;-63
2021/11/30 06:24:54;;;;;;;10.97;10.07;;;;;;;4.18;100.00;99465.69;6205356;28;20230;-64
2021/11/30 06:28:15;;;;;;;11.80;10.83;;;;;;;4.31;100.00;99467.34;6210710;28;20834;-64
2021/11/30 06:31:36;;;;;;;8.60;7.87;;;;;;;4.28;100.00;99461.34;6204260;28;20933;-65
2021/11/30 06:34:58;;;;;;;11.23;10.20;;;;;;;4.39;100.00;99469.91;6206591;28;20217;-64
2021/11/30 06:38:19;;;;;;;11.30;10.20;;;;;;;4.41;100.00;99478.47;6201721;28;20873;-64
2021/11/30 06:41:40;;;;;;;10.93;9.93;;;;;;;4.70;100.00;99472.28;6197589;28;20233;-64
2021/11/30 06:45:00;;;;;;;10.77;9.77;;;;;;;4.70;100.00;99490.34;6195066;28;20245;-65
2021/11/30 06:48:21;;;;;;;10.33;9.43;;;;;;;4.98;100.00;99474.66;6187960;28;20682;-64
2021/11/30 06:51:44;;;;;;;11.40;9.30;;;;;;;4.87;100.00;99485.94;6197271;28;20642;-63
2021/11/30 06:55:05;;;;;;;8.47;7.77;;;;;;;4.95;100.00;99480.72;6186654;28;20229;-64
2021/11/30 06:58:26;;;;;;;9.70;8.13;;;;;;;5.02;100.00;99491.84;6180126;28;20229;-65
2021/11/30 07:01:47;;;;;;;12.50;8.90;;;;;;;5.04;100.00;99483.22;6191929;28;20241;-66
2021/11/30 07:05:16;;;;;;;9.10;8.27;;;;;;;5.15;100.00;99466.78;6181317;28;20654;-64
2021/11/30 07:08:55;;;;;;;7.17;6.57;;;;;;;5.18;100.00;99459.03;6181008;28;20319;-64
2021/11/30 07:12:35;;;;;;;7.03;6.33;;;;;;;5.29;100.00;99465.81;6181822;28;20237;-64
2021/11/30 07:15:58;;;;;;;7.07;6.10;;;;;;;5.43;100.00;99473.44;6165982;28;20233;-64
2021/11/30 07:19:19;;;;;;;11.47;6.87;;;;;;;5.55;100.00;99477.63;6176762;28;20237;-63
2021/11/30 07:22:40;;;;;;;7.37;6.10;;;;;;;5.66;100.00;99472.31;6191595;28;20237;-66
2021/11/30 07:26:03;;;;;;;6.97;6.17;;;;;;;5.46;100.00;99473.38;6205068;28;20256;-64
2021/11/30 07:29:24;;;;;;;5.70;4.97;;;;;;;5.72;100.00;99480.88;6210877;28;20232;-64
2021/11/30 07:32:45;;;;;;;8.00;5.23;;;;;;;5.82;100.00;99471.31;6201762;28;20229;-64
2021/11/30 07:36:09;;;;;;;9.27;4.87;;;;;;;5.95;100.00;99464.28;6198984;28;20242;-64
2021/11/30 07:39:30;;;;;;;9.53;5.80;;;;;;;5.97;100.00;99467.72;6200567;28;20308;-63
2021/11/30 07:42:52;;;;;;;8.00;4.33;;;;;;;6.00;100.00;99465.09;6204672;28;20229;-64
2021/11/30 07:46:13;;;;;;;7.63;3.60;;;;;;;6.08;100.00;99463.25;6206415;28;20566;-63
2021/11/30 07:49:34;;;;;;;6.67;2.97;;;;;;;6.18;100.00;99457.97;6202131;28;20252;-64
2021/11/30 07:52:55;;;;;;;13.10;3.53;;;;;;;6.12;100.00;99453.75;6206737;28;20233;-65
2021/11/30 07:56:16;;;;;;;9.60;3.13;;;;;;;5.99;100.00;99453.06;6205306;28;20238;-63
2021/11/30 07:59:39;;;;;;;15.77;3.73;;;;;;;6.17;100.00;99456.28;6206163;28;20234;-65
2021/11/30 08:03:00;;;;;;;14.93;4.70;;;;;;;6.18;100.00;99468.31;6205749;28;21037;-63
2021/11/30 08:06:21;;;;;;;14.50;4.30;;;;;;;6.12;100.00;99448.56;6207569;28;20756;-64
2021/11/30 08:09:42;;;;;;;15.33;3.93;;;;;;;6.24;100.00;99460.47;6205167;28;20237;-67
2021/11/30 08:13:03;;;;;;;16.17;3.67;;;;;;;6.15;100.00;99458.03;6206689;28;20232;-64
2021/11/30 08:16:26;;;;;;;13.77;3.77;;;;;;;6.17;100.00;99458.88;6180808;28;20333;-64
2021/11/30 08:19:47;;;;;;;9.17;2.37;;;;;;;6.26;100.00;99456.16;6209043;28;20229;-64
2021/11/30 08:23:08;;;;;;;9.43;2.43;;;;;;;6.19;100.00;99452.81;6210315;28;20257;-65
2021/11/30 08:26:29;;;;;;;12.70;3.80;;;;;;;6.25;100.00;99462.22;6209013;28;20611;-63
2021/11/30 08:29:51;;;;;;;16.63;4.40;;;;;;;6.26;100.00;99450.97;6211551;28;20225;-63
2021/11/30 08:33:13;;;;;;;10.73;4.30;;;;;;;6.37;100.00;99454.28;6208361;28;20225;-63
2021/11/30 08:36:34;;;;;;;9.73;2.70;;;;;;;6.48;100.00;99464.50;6209069;28;20233;-63
2021/11/30 08:39:55;;;;;;;10.53;2.57;;;;;;;6.33;100.00;99462.97;6202783;28;20221;-64
2021/11/30 08:43:17;;;;;;;10.07;3.70;;;;;;;6.33;100.00;99459.53;6210038;28;20264;-64
2021/11/30 08:46:38;;;;;;;12.87;4.10;;;;;;;6.37;100.00;99467.19;6205985;28;20268;-64
2021/11/30 08:50:02;;;;;;;20.17;5.17;;;;;;;6.42;100.00;99462.84;6207561;28;20228;-63
2021/11/30 08:53:25;;;;;;;16.70;5.30;;;;;;;6.50;100.00;99460.16;6208614;28;20304;-63
2021/11/30 08:56:46;;;;;;;12.93;3.80;;;;;;;6.54;100.00;99471.31;6159704;28;20222;-62
2021/11/30 09:00:10;;;;;;;17.00;4.43;;;;;;;6.71;100.00;99474.50;6206222;28;20225;-63
2021/11/30 09:03:30;;;;;;;11.47;3.17;;;;;;;6.75;100.00;99481.34;6206700;28;20352;-63
2021/11/30 09:06:53;;;;;;;16.67;4.50;;;;;;;6.66;100.00;99477.13;6207459;28;20241;-63
2021/11/30 09:10:14;;;;;;;14.00;3.87;;;;;;;6.93;100.00;99485.38;6207867;28;20236;-64
2021/11/30 09:13:35;;;;;;;15.37;4.90;;;;;;;6.96;100.00;99484.47;6200461;28;20239;-64
2021/11/30 09:16:57;;;;;;;18.00;3.90;;;;;;;6.84;100.00;99507.09;6204113;28;20234;-63
2021/11/30 09:20:19;;;;;;;11.40;3.90;;;;;;;6.68;100.00;99495.22;6210588;28;20648;-64
2021/11/30 09:23:43;;;;;;;12.70;4.20;;;;;;;6.79;100.00;99483.00;6214275;28;20229;-63
2021/11/30 09:27:05;;;;;;;14.13;4.40;;;;;;;6.66;100.00;99497.84;6190622;28;20244;-66
2021/11/30 09:30:28;;;;;;;15.20;4.73;;;;;;;6.73;100.00;99474.47;6204771;28;20610;-64
2021/11/30 09:33:49;;;;;;;14.00;4.00;;;;;;;6.60;100.00;99486.75;6209989;28;20221;-64
2021/11/30 09:37:11;;;;;;;11.93;3.77;;;;;;;6.71;100.00;99471.91;6209265;28;20225;-64
2021/11/30 09:40:35;;;;;;;9.93;4.07;;;;;;;6.95;100.00;99467.25;6207672;28;20225;-63
2021/11/30 09:43:56;;;;;;;11.93;3.40;;;;;;;6.95;100.00;99482.78;6205791;28;20234;-61
2021/11/30 09:47:17;;;;;;;14.00;4.10;;;;;;;6.91;100.00;99466.44;6208708;28;20236;-64
2021/11/30 09:50:39;;;;;;;19.77;5.40;;;;;;;6.85;100.00;99472.56;6209421;28;20308;-63
2021/11/30 09:54:00;;;;;;;14.30;4.10;;;;;;;7.09;100.00;99475.63;6206673;28;20221;-63
2021/11/30 09:57:23;;;;;;;11.57;3.93;;;;;;;7.16;100.00;99473.81;6209104;28;20241;-63
2021/11/30 10:00:46;;;;;;;15.50;4.57;;;;;;;7.12;100.00;99462.66;6206305;28;20237;-63
2021/11/30 10:04:07;;;;;;;11.93;3.43;;;;;;;7.09;100.00;99473.03;6209853;28;20233;-64
2021/11/30 10:07:48;;;;;;;18.17;4.10;;;;;;;7.13;100.00;99466.94;6208430;28;20237;-64
2021/11/30 10:11:11;;;;;;;15.20;3.63;;;;;;;7.17;100.00;99467.75;6207027;28;20221;-64
2021/11/30 10:14:36;;;;;;;14.87;4.93;;;;;;;7.33;100.00;99452.78;6198826;28;20243;-64
2021/11/30 10:18:16;;;;;;;12.07;4.73;;;;;;;7.77;100.00;99453.72;6207021;28;20225;-65
2021/11/30 10:21:37;;;;;;;15.53;4.17;;;;;;;8.96;95.37;99459.84;6202795;28;20229;-63
2021/11/30 10:25:09;;;;;;;23.03;5.97;;;;;;;9.13;90.57;99460.28;6207295;28;20610;-64
2021/11/30 10:28:32;;;;;;;14.40;4.13;;;;;;;8.60;89.05;99467.59;6205126;28;20269;-64
2021/11/30 10:31:56;;;;;;;15.63;5.87;;;;;;;8.08;92.73;99475.56;6205973;28;20234;-63
2021/11/30 10:35:19;;;;;;;14.67;3.50;;;;;;;7.95;94.04;99474.09;6208632;28;20237;-63
2021/11/30 10:38:42;;;;;;;14.97;4.40;;;;;;;7.79;91.79;99491.69;6208553;28;20241;-64
2021/11/30 10:42:15;;;;;;;11.90;4.73;;;;;;;7.85;90.27;99490.69;6208276;28;20217;-64
2021/11/30 10:45:40;;;;;;;13.07;4.70;;;;;;;7.74;86.90;99516.84;6198061;28;20228;-64
2021/11/30 10:49:04;;;;;;;13.33;4.37;;;;;;;7.53;85.71;99493.91;6205811;28;20320;-63
2021/11/30 10:52:27;;;;;;;15.87;5.17;;;;;;;7.98;91.39;99494.78;6205930;28;20221;-68
2021/11/30 10:55:51;;;;;;;17.17;4.77;;;;;;;8.56;89.71;99502.28;6201552;28;20784;-63
2021/11/30 10:59:20;;;;;;;20.17;5.93;;;;;;;8.83;87.50;99490.41;6200975;28;20226;-65
2021/11/30 11:02:52;;;;;;;12.60;4.33;;;;;;;8.77;83.89;99516.53;6178225;28;20236;-63
2021/11/30 11:06:30;;;;;;;13.70;4.27;;;;;;;8.50;85.59;99512.78;6206636;28;20225;-65
2021/11/30 11:09:51;;;;;;;16.63;3.87;;;;;;;8.05;83.89;99517.09;6209484;28;20324;-64
2021/11/30 11:13:28;;;;;;;14.07;3.93;;;;;;;7.73;79.91;99501.31;6206265;28;20237;-65
2021/11/30 11:16:51;;;;;;;16.37;3.67;;;;;;;7.88;75.61;99509.66;6197982;28;20244;-63
2021/11/30 11:20:21;;;;;;;18.60;5.40;;;;;;;7.76;75.47;99509.03;6204079;28;20320;-62
2021/11/30 11:23:45;;;;;;;9.73;6.37;;;;;;;7.81;74.88;99527.94;6205559;28;20228;-64
2021/11/30 11:27:07;;;;;;;14.30;4.73;;;;;;;8.08;70.91;99519.66;6199652;28;20233;-62
2021/11/30 11:30:58;;;;;;;14.50;5.23;;;;;;;8.13;69.72;99518.69;6200404;28;20221;-63
2021/11/30 11:34:32;;;;;;;10.33;3.70;;;;;;;8.27;70.17;99521.88;6193218;28;20522;-64
2021/11/30 11:37:56;;;;;;;16.77;6.13;;;;;;;7.76;68.77;99515.06;6198541;28;20233;-63
2021/11/30 11:41:19;;;;;;;17.43;4.60;;;;;;;8.04;68.72;99530.94;6198984;28;20326;-63
2021/11/30 11:44:41;;;;;;;17.13;4.73;;;;;;;7.76;67.23;99525.44;6200214;28;20316;-62
2021/11/30 11:48:06;;;;;;;15.13;5.33;;;;;;;7.65;66.33;99523.03;6201220;28;20225;-62
2021/11/30 11:51:34;;;;;;;13.37;5.47;;;;;;;7.76;66.31;99520.25;6202625;28;20245;-63
2021/11/30 11:55:02;;;;;;;15.43;5.20;;;;;;;7.61;66.63;99531.72;6204889;28;20225;-64
2021/11/30 11:58:30;;;;;;;14.90;3.93;;;;;;;7.69;67.31;99529.00;6204705;28;20690;-63
2021/11/30 12:02:13;;;;;;;14.80;3.57;;;;;;;7.69;67.10;99539.38;6206052;28;20236;-64
2021/11/30 12:05:42;;;;;;;13.40;4.53;;;;;;;7.55;67.57;99516.31;6206984;28;20253;-65
2021/11/30 12:09:12;;;;;;;10.13;3.63;;;;;;;7.74;66.83;99526.34;6206671;28;20232;-64
2021/11/30 12:12:34;;;;;;;13.67;4.90;;;;;;;8.20;66.02;99535.81;6198886;28;20225;-64
2021/11/30 12:16:00;;;;;;;7.63;2.97;;;;;;;8.01;66.45;99535.34;6206730;28;20249;-63
2021/11/30 12:19:25;;;;;;;12.60;3.57;;;;;;;7.92;66.59;99548.47;6204493;28;20256;-63
2021/11/30 12:22:54;;;;;;;21.57;6.97;;;;;;;7.80;68.69;99562.53;6206719;28;20229;-63
2021/11/30 12:26:38;;;;;;;9.83;3.30;;;;;;;7.82;68.76;99537.44;6208218;28;20333;-64
2021/11/30 12:29:58;;;;;;;13.47;3.83;;;;;;;7.69;69.74;99535.03;6206747;28;20658;-64
2021/11/30 12:33:24;;;;;;;14.53;4.40;;;;;;;7.59;70.16;99551.63;6209611;28;20371;-64
2021/11/30 12:36:44;;;;;;;14.23;6.60;;;;;;;7.66;72.08;99535.09;6210099;28;20229;-62
2021/11/30 12:40:10;;;;;;;14.30;5.20;;;;;;;7.69;72.53;99532.44;6204048;28;20248;-62
2021/11/30 12:43:32;;;;;;;10.10;3.57;;;;;;;8.03;72.56;99534.44;6207767;28;20339;-62
2021/11/30 12:46:56;;;;;;;16.73;3.93;;;;;;;7.79;72.72;99563.38;6208471;28;20230;-64
2021/11/30 12:50:25;;;;;;;14.40;4.33;;;;;;;8.16;71.06;99568.78;6209683;28;20221;-64
2021/11/30 12:53:46;;;;;;;8.40;2.70;;;;;;;7.50;73.88;99613.97;6211873;28;20613;-64
2021/11/30 12:57:08;;;;;;;6.70;3.27;;;;;;;7.09;75.96;99577.47;6204315;28;20253;-63
2021/11/30 13:00:29;;;;;;;11.30;2.10;;;;;;;7.14;74.03;99598.09;6195134;28;20261;-64
2021/11/30 13:04:11;;;;;;;10.87;2.83;;;;;;;7.26;75.20;99592.75;6201120;28;20233;-63
2021/11/30 13:07:36;;;;;;;4.20;1.80;;;;;;;7.26;76.52;99590.16;6200768;28;20225;-62
2021/11/30 13:10:57;;;;;;;7.10;2.00;;;;;;;7.35;77.66;99596.94;6205332;28;20221;-62
2021/11/30 13:14:24;;;;;;;12.23;3.10;;;;;;;7.58;75.40;99568.06;6201344;28;20241;-63
2021/11/30 13:17:45;;;;;;;7.83;3.53;;;;;;;7.49;69.97;99594.13;6180696;28;20260;-64
2021/11/30 13:21:07;;;;;;;7.23;2.80;;;;;;;7.46;69.28;99596.75;6208149;28;20229;-64
2021/11/30 13:24:39;;;;;;;11.20;3.40;;;;;;;7.34;68.26;99609.91;6214317;28;20233;-65
2021/11/30 13:28:03;;;;;;;11.87;3.27;;;;;;;7.37;67.36;99613.31;6212461;28;20590;-64
2021/11/30 13:31:24;;;;;;;9.77;2.93;;;;;;;7.34;66.56;99615.94;6207278;28;20520;-65
2021/11/30 13:34:46;;;;;;;11.50;4.27;;;;;;;7.67;66.00;99611.94;6207499;28;20229;-64
2021/11/30 13:38:11;;;;;;;12.03;3.30;;;;;;;7.55;66.22;99638.06;6201314;28;20229;-64
2021/11/30 13:41:33;;;;;;;15.47;3.90;;;;;;;7.59;66.55;99631.94;6203221;28;20229;-64
2021/11/30 13:44:54;;;;;;;13.60;3.27;;;;;;;7.56;66.51;99642.38;6198877;28;20225;-64
2021/11/30 13:48:20;;;;;;;8.67;3.20;;;;;;;7.52;66.51;99651.06;6204520;28;20241;-63
2021/11/30 13:51:44;;;;;;;13.47;3.40;;;;;;;7.55;66.19;99656.19;6201799;28;20244;-65
2021/11/30 13:55:05;;;;;;;13.63;3.20;;;;;;;7.93;74.63;99636.59;6196727;28;20240;-71
2021/11/30 13:58:48;;;;;;;9.37;3.37;;;;;;;7.80;64.27;99674.81;6200029;28;20265;-68
2021/11/30 14:02:35;;;;;;;14.33;5.33;;;;;;;7.40;65.16;99671.97;6196539;28;20225;-65
2021/11/30 14:05:56;;;;;;;11.77;3.97;;;;;;;7.21;66.43;99673.97;6206581;28;20240;-64
2021/11/30 14:09:20;;;;;;;14.10;5.17;;;;;;;7.41;67.35;99682.31;6207434;28;20264;-64
2021/11/30 14:12:41;;;;;;;16.57;5.57;;;;;;;7.07;69.07;99689.69;6180909;28;20229;-64
2021/11/30 14:16:04;;;;;;;14.10;4.77;;;;;;;7.17;70.08;99700.78;6191367;28;20225;-62
2021/11/30 14:19:35;;;;;;;22.10;5.80;;;;;;;7.05;70.69;99706.97;6206981;28;20241;-64
2021/11/30 14:22:55;;;;;;;22.50;6.20;;;;;;;7.10;70.98;99720.72;6205149;28;20240;-62
2021/11/30 14:26:23;;;;;;;20.37;4.20;;;;;;;7.19;70.40;99735.25;6205235;28;20252;-64
2021/11/30 14:29:46;;;;;;;17.30;4.90;;;;;;;7.17;70.23;99730.09;6204579;28;20612;-64
2021/11/30 14:33:11;;;;;;;14.37;6.33;;;;;;;7.45;69.29;99732.34;6205591;28;20225;-64
2021/11/30 14:36:32;;;;;;;11.00;3.63;;;;;;;7.39;68.52;99760.94;6201726;28;20232;-64
2021/11/30 14:40:08;;;;;;;7.10;3.27;;;;;;;7.52;68.44;99769.38;6209606;28;20229;-63
2021/11/30 14:43:32;;;;;;;20.63;4.83;;;;;;;7.43;68.13;99778.16;6211590;28;20222;-64
2021/11/30 14:46:53;;;;;;;14.13;5.50;;;;;;;7.25;68.06;99782.69;6203487;28;20331;-65
2021/11/30 14:50:21;;;;;;;8.43;2.50;;;;;;;7.39;67.80;99776.47;6202128;28;20225;-63
2021/11/30 14:53:46;;;;;;;11.37;4.03;;;;;;;7.27;67.87;99778.34;6199044;28;20518;-63
2021/11/30 14:57:08;;;;;;;14.70;5.43;;;;;;;7.19;68.74;99776.69;6197065;28;20260;-62
2021/11/30 15:00:31;;;;;;;12.83;3.57;;;;;;;7.16;69.46;99808.69;6195787;28;21690;-63
2021/11/30 15:03:57;;;;;;;14.13;4.60;;;;;;;7.42;69.38;99820.44;6193849;28;20244;-64
2021/11/30 15:07:19;;;;;;;12.93;4.40;;;;;;;7.17;69.82;99831.09;6197975;28;20249;-64
2021/11/30 15:10:40;;;;;;;10.13;2.90;;;;;;;7.15;70.98;99832.00;6201383;28;20238;-63
2021/11/30 15:14:06;;;;;;;8.23;3.00;;;;;;;6.99;71.62;99836.47;6203058;28;20257;-64
2021/11/30 15:17:28;;;;;;;13.10;4.23;;;;;;;7.05;72.28;99841.59;6206425;28;20252;-66
2021/11/30 15:20:50;;;;;;;9.73;3.07;;;;;;;6.84;73.05;99838.34;6205625;28;20285;-64
2021/11/30 15:24:13;;;;;;;18.10;4.97;;;;;;;7.07;72.89;99845.84;6208478;28;20237;-64
2021/11/30 15:27:37;;;;;;;11.20;2.80;;;;;;;7.02;73.45;99839.03;6205719;28;20240;-64
2021/11/30 15:30:58;;;;;;;12.00;4.13;;;;;;;7.01;73.39;99856.28;6200219;28;20987;-64
2021/11/30 15:34:19;;;;;;;10.50;2.90;;;;;;;7.11;73.89;99867.41;6202702;28;20233;-65
2021/11/30 15:37:41;;;;;;;13.03;4.97;;;;;;;7.09;73.96;99869.16;6205362;28;20297;-65
2021/11/30 15:41:03;;;;;;;14.73;4.33;;;;;;;7.09;73.90;99874.34;6199048;28;20249;-65
2021/11/30 15:44:25;;;;;;;12.77;3.40;;;;;;;7.19;73.92;99875.09;6200937;28;20639;-66
2021/11/30 15:47:46;;;;;;;9.13;3.37;;;;;;;7.10;73.45;99892.44;6196122;28;20561;-65
2021/11/30 15:51:07;;;;;;;19.37;3.60;;;;;;;7.10;73.39;99901.97;6202526;28;20233;-65
2021/11/30 15:54:30;;;;;;;9.13;3.50;;;;;;;7.03;73.97;99901.13;6204374;28;20229;-64
2021/11/30 15:57:52;;;;;;;12.27;3.30;;;;;;;6.96;74.50;99914.16;6203434;28;20253;-66